createdAt,value
2023-01-29T00:00:22.249Z,9.07
2023-01-29T00:02:48.701Z,9.00
2023-01-29T00:05:27.087Z,8.97
2023-01-29T00:07:54.656Z,9.27
2023-01-29T00:10:21.133Z,8.85
2023-01-29T00:12:47.589Z,8.93
2023-01-29T00:15:14.034Z,9.25
2023-01-29T00:17:40.514Z,8.90
2023-01-29T00:20:07.232Z,8.75
2023-01-29T00:22:33.630Z,9.07
2023-01-29T00:25:00.351Z,9.82
2023-01-29T00:27:26.786Z,9.88
2023-01-29T00:30:13.032Z,9.47
2023-01-29T00:32:40.700Z,8.15
2023-01-29T00:35:08.827Z,9.85
2023-01-29T00:37:35.443Z,9.27
2023-01-29T00:40:01.850Z,8.93
2023-01-29T00:42:46.914Z,8.77
2023-01-29T00:45:13.462Z,9.40
2023-01-29T00:47:39.944Z,8.57
2023-01-29T00:50:09.550Z,9.20
2023-01-29T00:52:36.786Z,8.77
2023-01-29T00:55:05.749Z,9.23
2023-01-29T00:57:34.035Z,8.57
2023-01-29T01:00:01.652Z,10.30
2023-01-29T01:02:47.116Z,9.07
2023-01-29T01:05:18.127Z,10.13
2023-01-29T01:07:46.669Z,8.37
2023-01-29T01:10:22.307Z,8.93
2023-01-29T01:13:00.244Z,8.70
2023-01-29T01:15:31.008Z,9.73
2023-01-29T01:18:01.353Z,9.23
2023-01-29T01:20:30.075Z,8.20
2023-01-29T01:22:57.007Z,8.13
2023-01-29T01:25:25.055Z,10.13
2023-01-29T01:27:55.253Z,8.38
2023-01-29T01:30:23.084Z,9.23
2023-01-29T01:32:49.933Z,8.50
2023-01-29T01:35:16.754Z,8.18
2023-01-29T01:37:43.154Z,7.97
2023-01-29T01:40:21.724Z,8.55
2023-01-29T01:42:50.794Z,8.30
2023-01-29T01:45:35.430Z,9.03
2023-01-29T01:48:01.827Z,7.93
2023-01-29T01:50:43.902Z,8.07
2023-01-29T01:53:19.122Z,9.02
2023-01-29T01:55:54.417Z,7.85
2023-01-29T01:58:43.756Z,8.17
2023-01-29T02:01:11.808Z,9.43
2023-01-29T02:04:03.391Z,8.90
2023-01-29T02:06:49.886Z,8.60
2023-01-29T02:09:38.798Z,8.20
2023-01-29T02:12:10.794Z,8.30
2023-01-29T02:14:40.122Z,9.23
2023-01-29T02:17:10.111Z,7.53
2023-01-29T02:19:39.191Z,8.25
2023-01-29T02:22:33.482Z,7.82
2023-01-29T02:25:12.067Z,8.77
2023-01-29T02:27:48.824Z,7.80
2023-01-29T02:30:19.497Z,8.60
2023-01-29T02:32:58.669Z,7.90
2023-01-29T02:35:32.194Z,8.13
2023-01-29T02:38:17.986Z,8.43
2023-01-29T02:40:57.426Z,8.52
2023-01-29T02:43:39.068Z,8.20
2023-01-29T02:46:18.268Z,8.57
2023-01-29T02:48:55.730Z,8.20
2023-01-29T02:51:30.671Z,8.60
2023-01-29T02:54:20.315Z,8.82
2023-01-29T02:56:54.184Z,9.27
2023-01-29T02:59:25.594Z,8.68
2023-01-29T03:01:58.171Z,9.57
2023-01-29T03:04:30.566Z,9.37
2023-01-29T03:07:04.349Z,10.07
2023-01-29T03:09:39.552Z,8.45
2023-01-29T03:12:29.167Z,8.82
2023-01-29T03:15:11.668Z,9.07
2023-01-29T03:17:51.329Z,8.57
2023-01-29T03:20:22.674Z,9.90
2023-01-29T03:22:56.645Z,10.00
2023-01-29T03:25:45.707Z,9.52
2023-01-29T03:28:35.825Z,8.88
2023-01-29T03:31:24.393Z,9.30
2023-01-29T03:33:58.998Z,10.68
2023-01-29T03:36:45.402Z,9.93
2023-01-29T03:39:14.010Z,9.02
2023-01-29T03:41:49.976Z,9.48
2023-01-29T03:44:26.400Z,11.03
2023-01-29T03:46:57.583Z,10.55
2023-01-29T03:49:40.427Z,11.50
2023-01-29T03:52:23.605Z,10.88
2023-01-29T03:55:23.099Z,10.00
2023-01-29T03:57:57.762Z,11.27
2023-01-29T04:00:32.396Z,10.68
2023-01-29T04:03:21.890Z,11.52
2023-01-29T04:05:58.373Z,10.00
2023-01-29T04:08:31.044Z,10.40
2023-01-29T04:11:01.966Z,9.83
2023-01-29T04:13:33.687Z,10.05
2023-01-29T04:16:03.209Z,11.00
2023-01-29T04:18:29.702Z,10.50
2023-01-29T04:20:56.542Z,10.57
2023-01-29T04:23:27.377Z,9.53
2023-01-29T04:26:10.252Z,10.23
2023-01-29T04:29:09.018Z,10.00
2023-01-29T04:32:01.910Z,9.40
2023-01-29T04:34:33.730Z,10.73
2023-01-29T04:37:29.945Z,10.47
2023-01-29T04:40:09.149Z,10.45
2023-01-29T04:42:47.778Z,10.48
2023-01-29T04:45:46.992Z,10.20
2023-01-29T04:48:22.386Z,10.93
2023-01-29T04:51:07.099Z,10.73
2023-01-29T04:54:10.940Z,11.48
2023-01-29T04:56:48.272Z,11.80
2023-01-29T04:59:21.575Z,10.77
2023-01-29T05:01:48.910Z,12.55
2023-01-29T05:04:19.974Z,10.60
2023-01-29T05:06:49.254Z,10.32
2023-01-29T05:09:17.477Z,10.68
2023-01-29T05:11:47.700Z,10.40
2023-01-29T05:14:18.301Z,11.73
2023-01-29T05:16:50.773Z,11.40
2023-01-29T05:19:17.594Z,11.35
2023-01-29T05:21:47.530Z,12.10
2023-01-29T05:24:21.044Z,10.23
2023-01-29T05:27:08.270Z,10.85
2023-01-29T05:29:34.875Z,10.60
2023-01-29T05:32:01.313Z,10.80
2023-01-29T05:34:27.843Z,11.88
2023-01-29T05:36:54.247Z,10.95
2023-01-29T05:39:21.065Z,11.05
2023-01-29T05:41:47.700Z,12.10
2023-01-29T05:44:14.226Z,11.55
2023-01-29T05:46:40.763Z,11.50
2023-01-29T05:49:07.223Z,10.02
2023-01-29T05:51:33.687Z,11.25
2023-01-29T05:54:00.115Z,10.93
2023-01-29T05:56:26.627Z,10.52
2023-01-29T05:58:53.100Z,11.93
2023-01-29T06:01:22.091Z,17.80
2023-01-29T06:03:48.662Z,47.55
2023-01-29T06:06:15.798Z,16.80
2023-01-29T06:08:42.506Z,36.50
2023-01-29T06:11:12.031Z,41.25
2023-01-29T06:13:39.298Z,47.85
2023-01-29T06:16:07.122Z,33.25
2023-01-29T06:18:33.822Z,26.33
2023-01-29T06:21:02.559Z,15.75
2023-01-29T06:23:29.529Z,13.20
2023-01-29T06:26:03.575Z,14.90
2023-01-29T06:28:30.679Z,12.82
2023-01-29T06:31:08.262Z,12.60
2023-01-29T06:33:43.035Z,11.65
2023-01-29T06:36:10.107Z,12.35
2023-01-29T06:38:36.527Z,12.25
2023-01-29T06:41:12.214Z,12.80
2023-01-29T06:43:39.383Z,11.40
2023-01-29T06:46:08.258Z,11.02
2023-01-29T06:48:35.170Z,10.60
2023-01-29T06:51:06.859Z,10.10
2023-01-29T06:53:34.700Z,10.27
2023-01-29T06:56:01.421Z,10.97
2023-01-29T06:58:27.857Z,10.25
2023-01-29T07:00:54.450Z,11.15
2023-01-29T07:03:21.197Z,11.55
2023-01-29T07:05:52.537Z,10.38
2023-01-29T07:08:19.430Z,10.13
2023-01-29T07:10:45.903Z,18.05
2023-01-29T07:13:12.422Z,11.00
2023-01-29T07:15:38.906Z,10.85
2023-01-29T07:18:12.081Z,9.90
2023-01-29T07:20:40.752Z,11.27
2023-01-29T07:23:10.098Z,11.60
2023-01-29T07:25:36.805Z,21.77
2023-01-29T07:28:04.102Z,23.77
2023-01-29T07:30:30.732Z,15.35
2023-01-29T07:33:07.302Z,15.43
2023-01-29T07:35:39.179Z,12.15
2023-01-29T07:38:06.980Z,13.50
2023-01-29T07:40:33.673Z,15.80
2023-01-29T07:43:02.154Z,16.30
2023-01-29T07:45:30.068Z,13.57
2023-01-29T07:47:57.023Z,10.70
2023-01-29T07:50:24.811Z,11.65
2023-01-29T07:52:51.607Z,12.57
2023-01-29T07:55:18.081Z,14.60
2023-01-29T07:57:44.641Z,12.10
2023-01-29T08:00:12.351Z,15.32
2023-01-29T08:02:39.122Z,15.60
2023-01-29T08:05:05.816Z,16.02
2023-01-29T08:07:32.501Z,19.08
2023-01-29T08:09:59.109Z,19.70
2023-01-29T08:12:25.702Z,13.38
2023-01-29T08:14:52.123Z,16.45
2023-01-29T08:17:18.538Z,12.52
2023-01-29T08:19:44.967Z,10.95
2023-01-29T08:22:11.463Z,9.57
2023-01-29T08:24:53.296Z,11.00
2023-01-29T08:27:24.388Z,10.73
2023-01-29T08:29:50.847Z,10.30
2023-01-29T08:32:17.248Z,9.70
2023-01-29T08:34:43.779Z,10.00
2023-01-29T08:37:10.187Z,15.02
2023-01-29T08:39:36.679Z,18.05
2023-01-29T08:42:03.164Z,14.95
2023-01-29T08:44:29.592Z,12.65
2023-01-29T08:46:56.032Z,9.13
2023-01-29T08:49:22.498Z,9.88
2023-01-29T08:51:49.019Z,9.82
2023-01-29T08:54:15.547Z,9.90
2023-01-29T08:56:41.972Z,10.65
2023-01-29T08:59:10.076Z,15.37
2023-01-29T09:01:36.829Z,13.02
2023-01-29T09:04:03.323Z,12.45
2023-01-29T09:06:29.915Z,12.52
2023-01-29T09:08:56.500Z,9.68
2023-01-29T09:11:22.959Z,11.67
2023-01-29T09:13:49.467Z,9.52
2023-01-29T09:16:15.935Z,10.75
2023-01-29T09:18:42.563Z,11.40
2023-01-29T09:21:09.174Z,11.90
2023-01-29T09:23:35.833Z,10.50
2023-01-29T09:26:02.294Z,9.52
2023-01-29T09:28:28.752Z,10.98
2023-01-29T09:30:57.038Z,10.50
2023-01-29T09:33:24.711Z,10.75
2023-01-29T09:35:51.204Z,9.63
2023-01-29T09:38:17.607Z,11.43
2023-01-29T09:41:00.274Z,11.38
2023-01-29T09:43:41.778Z,9.65
2023-01-29T09:46:17.617Z,9.82
2023-01-29T09:48:46.239Z,11.23
2023-01-29T09:51:25.469Z,11.30
2023-01-29T09:54:03.372Z,11.65
2023-01-29T09:56:29.848Z,10.18
2023-01-29T09:59:01.616Z,10.88
2023-01-29T10:01:44.538Z,13.60
2023-01-29T10:04:16.749Z,11.30
2023-01-29T10:07:17.468Z,10.57
2023-01-29T10:10:25.953Z,10.82
2023-01-29T10:13:15.536Z,10.98
2023-01-29T10:15:54.286Z,10.93
2023-01-29T10:18:36.328Z,11.90
2023-01-29T10:21:45.606Z,13.90
2023-01-29T10:24:18.665Z,11.50
2023-01-29T10:26:45.233Z,12.95
2023-01-29T10:29:18.204Z,17.60
2023-01-29T10:31:49.867Z,21.80
2023-01-29T10:34:33.271Z,10.77
2023-01-29T10:36:59.755Z,11.60
2023-01-29T10:39:27.266Z,10.95
2023-01-29T10:42:08.683Z,11.37
2023-01-29T10:45:01.663Z,11.20
2023-01-29T10:47:53.211Z,11.38
2023-01-29T10:50:36.543Z,11.70
2023-01-29T10:53:33.514Z,11.75
2023-01-29T10:56:23.060Z,10.67
2023-01-29T10:59:14.423Z,10.38
2023-01-29T11:01:40.913Z,10.75
2023-01-29T11:04:12.853Z,11.63
2023-01-29T11:06:39.404Z,11.05
2023-01-29T11:12:04.138Z,11.05
2023-01-29T11:14:44.524Z,11.50
2023-01-29T11:17:19.176Z,11.65
2023-01-29T11:19:48.542Z,11.48
2023-01-29T11:22:17.499Z,11.07
2023-01-29T11:24:44.553Z,10.82
2023-01-29T11:27:33.824Z,12.38
2023-01-29T11:30:00.491Z,12.02
2023-01-29T11:32:32.548Z,14.55
2023-01-29T11:35:14.338Z,15.27
2023-01-29T11:37:42.852Z,13.32
2023-01-29T11:40:35.416Z,13.70
2023-01-29T11:43:16.546Z,11.90
2023-01-29T11:45:43.481Z,12.98
2023-01-29T11:48:43.823Z,13.60
2023-01-29T11:51:20.392Z,12.13
2023-01-29T11:53:52.406Z,13.52
2023-01-29T11:56:25.051Z,13.07
2023-01-29T11:58:55.347Z,13.68
2023-01-29T12:01:36.422Z,13.33
2023-01-29T12:04:12.914Z,12.70
2023-01-29T12:06:44.114Z,12.23
2023-01-29T12:09:17.343Z,13.90
2023-01-29T12:11:44.237Z,12.85
2023-01-29T12:14:33.594Z,12.00
2023-01-29T12:17:08.294Z,11.63
2023-01-29T12:19:46.408Z,13.50
2023-01-29T12:22:38.705Z,12.85
2023-01-29T12:25:18.200Z,13.77
2023-01-29T12:28:19.816Z,11.93
2023-01-29T12:31:04.502Z,13.27
2023-01-29T12:33:41.702Z,12.68
2023-01-29T12:36:37.135Z,12.70
2023-01-29T12:39:03.913Z,13.23
2023-01-29T12:41:37.940Z,14.83
2023-01-29T12:44:17.076Z,13.32
2023-01-29T12:46:50.929Z,18.73
2023-01-29T12:49:24.974Z,13.93
2023-01-29T12:52:06.632Z,13.38
2023-01-29T12:54:55.065Z,14.50
2023-01-29T12:57:46.661Z,14.68
2023-01-29T13:00:29.839Z,14.20
2023-01-29T13:03:23.689Z,13.75
2023-01-29T13:06:12.137Z,13.45
2023-01-29T13:08:44.553Z,14.10
2023-01-29T13:11:19.725Z,14.27
2023-01-29T13:13:59.536Z,13.40
2023-01-29T13:16:30.639Z,13.68
2023-01-29T13:19:01.833Z,14.63
2023-01-29T13:21:38.143Z,14.37
2023-01-29T13:24:11.497Z,14.30
2023-01-29T13:26:39.544Z,14.90
2023-01-29T13:29:06.087Z,13.77
2023-01-29T13:31:36.536Z,13.77
2023-01-29T13:34:14.769Z,14.23
2023-01-29T13:36:46.922Z,14.90
2023-01-29T13:39:24.844Z,13.40
2023-01-29T13:41:53.087Z,13.10
2023-01-29T13:44:33.603Z,14.75
2023-01-29T13:47:05.151Z,14.33
2023-01-29T13:49:34.717Z,13.23
2023-01-29T13:52:17.206Z,13.13
2023-01-29T13:54:54.280Z,13.88
2023-01-29T13:57:48.892Z,13.43
2023-01-29T14:00:21.393Z,13.50
2023-01-29T14:03:00.115Z,13.52
2023-01-29T14:05:29.366Z,13.38
2023-01-29T14:07:55.751Z,13.68
2023-01-29T14:10:24.127Z,11.95
2023-01-29T14:12:52.848Z,12.60
2023-01-29T14:15:26.014Z,14.73
2023-01-29T14:18:13.634Z,15.13
2023-01-29T14:21:20.546Z,16.55
2023-01-29T14:23:52.658Z,15.15
2023-01-29T14:26:32.262Z,13.13
2023-01-29T14:29:25.561Z,12.27
2023-01-29T14:32:00.278Z,14.77
2023-01-29T14:34:45.886Z,12.93
2023-01-29T14:37:15.360Z,12.27
2023-01-29T14:39:54.822Z,15.40
2023-01-29T14:42:32.137Z,15.32
2023-01-29T14:45:06.646Z,12.90
2023-01-29T14:47:32.997Z,13.95
2023-01-29T14:50:02.232Z,13.43
2023-01-29T14:52:37.300Z,12.60
2023-01-29T14:55:11.046Z,12.15
2023-01-29T14:57:38.844Z,12.07
2023-01-29T15:00:07.607Z,12.80
2023-01-29T15:02:45.668Z,12.00
2023-01-29T15:05:19.154Z,11.37
2023-01-29T15:08:16.644Z,12.65
2023-01-29T15:10:48.682Z,11.23
2023-01-29T15:13:42.778Z,12.27
2023-01-29T15:16:17.244Z,11.35
2023-01-29T15:18:44.403Z,11.77
2023-01-29T15:21:13.194Z,12.15
2023-01-29T15:23:44.250Z,11.30
2023-01-29T15:26:20.116Z,12.02
2023-01-29T15:29:02.138Z,11.98
2023-01-29T15:31:30.516Z,11.67
2023-01-29T15:33:57.250Z,12.40
2023-01-29T15:36:26.748Z,12.23
2023-01-29T15:39:11.733Z,14.18
2023-01-29T15:41:38.669Z,12.80
2023-01-29T15:44:14.573Z,12.13
2023-01-29T15:46:43.140Z,10.90
2023-01-29T15:49:25.707Z,11.30
2023-01-29T15:51:57.051Z,11.63
2023-01-29T15:54:25.109Z,20.65
2023-01-29T15:56:52.948Z,13.43
2023-01-29T15:59:25.975Z,12.65
2023-01-29T16:01:53.940Z,11.52
2023-01-29T16:04:28.846Z,10.98
2023-01-29T16:06:57.120Z,11.07
2023-01-29T16:09:26.256Z,11.63
2023-01-29T16:11:57.376Z,11.57
2023-01-29T16:14:25.715Z,12.25
2023-01-29T16:16:52.939Z,11.98
2023-01-29T16:19:28.384Z,11.20
2023-01-29T16:21:57.625Z,11.70
2023-01-29T16:24:25.427Z,12.98
2023-01-29T16:26:58.484Z,12.52
2023-01-29T16:29:31.548Z,11.63
2023-01-29T16:32:03.192Z,11.73
2023-01-29T16:34:41.560Z,11.77
2023-01-29T16:37:23.227Z,9.82
2023-01-29T16:39:52.665Z,11.77
2023-01-29T16:42:20.689Z,11.63
2023-01-29T16:44:52.825Z,13.40
2023-01-29T16:47:39.444Z,13.73
2023-01-29T16:50:24.012Z,12.90
2023-01-29T16:53:00.911Z,12.57
2023-01-29T16:55:36.268Z,13.05
2023-01-29T16:58:15.114Z,13.30
2023-01-29T17:01:09.653Z,12.20
2023-01-29T17:03:37.517Z,12.98
2023-01-29T17:06:21.302Z,15.30
2023-01-29T17:08:48.194Z,12.82
2023-01-29T17:11:27.037Z,12.52
2023-01-29T17:13:55.813Z,11.70
2023-01-29T17:16:32.727Z,12.73
2023-01-29T17:19:00.502Z,11.77
2023-01-29T17:21:28.967Z,12.57
2023-01-29T17:23:55.624Z,15.38
2023-01-29T17:26:23.234Z,14.23
2023-01-29T17:28:51.544Z,12.90
2023-01-29T17:31:18.265Z,13.80
2023-01-29T17:33:45.971Z,13.63
2023-01-29T17:36:15.234Z,13.20
2023-01-29T17:38:42.046Z,12.30
2023-01-29T17:41:30.318Z,13.27
2023-01-29T17:43:56.743Z,12.88
2023-01-29T17:46:23.185Z,13.07
2023-01-29T17:48:50.095Z,14.13
2023-01-29T17:51:17.946Z,13.23
2023-01-29T17:53:46.473Z,13.13
2023-01-29T17:56:18.988Z,14.23
2023-01-29T17:58:45.525Z,13.70
2023-01-29T18:01:12.130Z,12.90
2023-01-29T18:03:38.676Z,12.93
2023-01-29T18:06:08.311Z,13.88
2023-01-29T18:08:37.598Z,13.65
2023-01-29T18:11:04.409Z,13.55
2023-01-29T18:13:30.897Z,14.60
2023-01-29T18:15:57.424Z,13.13
2023-01-29T18:18:24.341Z,13.50
2023-01-29T18:20:51.204Z,14.32
2023-01-29T18:23:17.776Z,12.90
2023-01-29T18:25:44.968Z,12.35
2023-01-29T18:28:20.488Z,13.60
2023-01-29T18:30:47.680Z,13.80
2023-01-29T18:33:15.468Z,12.32
2023-01-29T18:35:48.207Z,14.40
2023-01-29T18:38:14.865Z,12.30
2023-01-29T18:40:41.411Z,12.20
2023-01-29T18:43:08.002Z,11.75
2023-01-29T18:45:34.447Z,11.95
2023-01-29T18:48:01.578Z,13.82
2023-01-29T18:50:28.086Z,14.38
2023-01-29T18:52:54.699Z,13.57
2023-01-29T18:55:22.442Z,15.50
2023-01-29T18:58:24.929Z,13.90
2023-01-29T19:00:42.051Z,15.05
2023-01-29T19:03:08.557Z,12.25
2023-01-29T19:05:35.114Z,13.37
2023-01-29T19:08:01.987Z,13.40
2023-01-29T19:10:28.700Z,13.35
2023-01-29T19:12:55.187Z,13.55
2023-01-29T19:15:22.796Z,14.73
2023-01-29T19:17:53.009Z,14.57
2023-01-29T19:20:19.993Z,13.48
2023-01-29T19:22:46.680Z,14.63
2023-01-29T19:25:13.265Z,13.48
2023-01-29T19:27:39.776Z,13.55
2023-01-29T19:30:07.533Z,13.57
2023-01-29T19:32:34.710Z,12.25
2023-01-29T19:35:01.144Z,12.80
2023-01-29T19:37:28.036Z,13.88
2023-01-29T19:39:58.809Z,12.80
2023-01-29T19:42:25.603Z,13.50
2023-01-29T19:44:53.341Z,12.55
2023-01-29T19:47:20.155Z,12.60
2023-01-29T19:49:46.750Z,12.75
2023-01-29T19:52:41.470Z,11.82
2023-01-29T19:55:16.801Z,12.90
2023-01-29T19:57:43.528Z,13.07
2023-01-29T20:00:12.069Z,12.90
2023-01-29T20:02:38.680Z,12.75
2023-01-29T20:05:05.783Z,14.15
2023-01-29T20:07:32.253Z,12.27
2023-01-29T20:09:58.743Z,12.30
2023-01-29T20:12:27.512Z,12.38
2023-01-29T20:14:53.917Z,13.75
2023-01-29T20:17:20.360Z,13.43
2023-01-29T20:19:46.868Z,12.77
2023-01-29T20:22:13.646Z,12.85
2023-01-29T20:24:42.406Z,13.27
2023-01-29T20:27:10.741Z,14.20
2023-01-29T20:29:40.328Z,13.57
2023-01-29T20:32:08.827Z,14.50
2023-01-29T20:34:36.099Z,15.80
2023-01-29T20:37:02.642Z,13.50
2023-01-29T20:39:29.147Z,18.10
2023-01-29T20:41:57.276Z,14.30
2023-01-29T20:44:26.703Z,13.10
2023-01-29T20:46:53.265Z,14.65
2023-01-29T20:49:19.992Z,13.82
2023-01-29T20:51:46.519Z,13.43
2023-01-29T20:54:13.251Z,14.32
2023-01-29T20:56:42.961Z,14.83
2023-01-29T20:59:11.423Z,13.52
2023-01-29T21:01:38.133Z,14.60
2023-01-29T21:04:04.614Z,18.23
2023-01-29T21:06:31.434Z,14.18
2023-01-29T21:08:57.962Z,15.40
2023-01-29T21:11:24.550Z,16.83
2023-01-29T21:13:54.362Z,13.90
2023-01-29T21:16:20.859Z,15.70
2023-01-29T21:18:47.348Z,13.25
2023-01-29T21:21:13.825Z,17.13
2023-01-29T21:23:40.282Z,14.02
2023-01-29T21:26:07.197Z,14.52
2023-01-29T21:28:34.129Z,13.60
2023-01-29T21:31:10.065Z,14.98
2023-01-29T21:33:37.112Z,16.33
2023-01-29T21:36:04.629Z,19.48
2023-01-29T21:38:31.466Z,14.10
2023-01-29T21:41:03.101Z,12.88
2023-01-29T21:43:29.537Z,15.77
2023-01-29T21:45:57.266Z,13.53
2023-01-29T21:48:24.335Z,15.20
2023-01-29T21:50:51.352Z,22.05
2023-01-29T21:53:18.624Z,14.30
2023-01-29T21:55:46.218Z,16.40
2023-01-29T21:58:14.421Z,12.53
2023-01-29T22:00:41.134Z,13.55
2023-01-29T22:03:07.692Z,17.77
2023-01-29T22:05:34.259Z,15.35
2023-01-29T22:08:00.891Z,17.95
2023-01-29T22:10:28.780Z,15.47
2023-01-29T22:12:55.458Z,18.60
2023-01-29T22:15:24.055Z,14.85
2023-01-29T22:17:50.878Z,13.05
2023-01-29T22:20:17.855Z,15.55
2023-01-29T22:22:44.589Z,14.20
2023-01-29T22:25:11.736Z,18.70
2023-01-29T22:27:38.220Z,21.27
2023-01-29T22:30:05.634Z,16.40
2023-01-29T22:32:32.820Z,17.13
2023-01-29T22:34:59.328Z,13.50
2023-01-29T22:37:25.798Z,14.30
2023-01-29T22:39:52.239Z,16.25
2023-01-29T22:42:20.465Z,19.50
2023-01-29T22:44:48.060Z,15.23
2023-01-29T22:47:14.455Z,15.13
2023-01-29T22:49:40.938Z,13.63
2023-01-29T22:52:10.296Z,14.20
2023-01-29T22:54:38.758Z,15.75
2023-01-29T22:57:05.765Z,14.45
2023-01-29T22:59:32.871Z,14.37
2023-01-29T23:01:59.471Z,13.43
2023-01-29T23:04:26.128Z,13.85
2023-01-29T23:06:52.612Z,13.27
2023-01-29T23:09:19.113Z,13.35
2023-01-29T23:11:45.691Z,14.00
2023-01-29T23:14:12.145Z,14.38
2023-01-29T23:16:38.553Z,15.35
2023-01-29T23:19:05.258Z,13.20
2023-01-29T23:21:31.690Z,13.43
2023-01-29T23:24:01.431Z,13.93
2023-01-29T23:26:54.874Z,12.75
2023-01-29T23:29:21.332Z,13.05
2023-01-29T23:31:48.032Z,13.52
2023-01-29T23:34:15.176Z,13.10
2023-01-29T23:36:41.817Z,12.47
2023-01-29T23:39:08.614Z,12.63
2023-01-29T23:41:35.385Z,11.88
2023-01-29T23:44:01.897Z,12.00
2023-01-29T23:46:28.361Z,12.23
2023-01-29T23:48:54.793Z,12.13
2023-01-29T23:51:21.198Z,11.85
2023-01-29T23:53:47.703Z,13.23
2023-01-29T23:56:14.164Z,10.88
2023-01-29T23:58:40.638Z,12.18
